Time;durP1;ratioP1;P1;durP2;ratioP2;P2;SDS_P1;SDS_P2;PMS_P1;PMS_P2;Temp;Humidity;BMP_temperature;BMP_pressure;BME280_temperature;BME280_humidity;BME280_pressure;Samples;Min_cycle;Max_cycle;Signal;HPM_P1;HPM_P2
2021/08/04 00:00:32;;;;;;;6.63;5.50;;;;;;;;;;5014473;28;20244;-69
2021/08/04 00:02:58;;;;;;;8.07;5.78;;;;;;;;;;5018816;28;20642;-69
2021/08/04 00:05:23;;;;;;;7.15;5.82;;;;;;;;;;5019768;28;20224;-69
2021/08/04 00:07:49;;;;;;;7.72;6.25;;;;;;;;;;5024020;28;20181;-69
2021/08/04 00:10:15;;;;;;;7.75;5.75;;;;;;;;;;5023864;28;20194;-69
2021/08/04 00:12:41;;;;;;;8.57;5.30;;;;;;;;;;5021459;28;20182;-69
2021/08/04 00:15:07;;;;;;;8.82;6.07;;;;;;;;;;5025070;28;20942;-69
2021/08/04 00:17:32;;;;;;;8.35;5.70;;;;;;;;;;5019051;28;20308;-69
2021/08/04 00:19:58;;;;;;;7.95;5.60;;;;;;;;;;5018364;28;20265;-69
2021/08/04 00:22:23;;;;;;;8.55;5.25;;;;;;;;;;5019107;28;20204;-69
2021/08/04 00:24:48;;;;;;;8.80;5.65;;;;;;;;;;5018571;28;20174;-69
2021/08/04 00:27:14;;;;;;;6.50;5.68;;;;;;;;;;5022728;28;20194;-69
2021/08/04 00:29:39;;;;;;;6.88;6.13;;;;;;;;;;5026410;28;20186;-69
2021/08/04 00:32:05;;;;;;;7.03;5.68;;;;;;;;;;5011994;28;20189;-69
2021/08/04 00:34:30;;;;;;;8.07;5.50;;;;;;;;;;5022238;28;20445;-69
2021/08/04 00:36:56;;;;;;;6.97;6.05;;;;;;;;;;5017541;28;20289;-69
2021/08/04 00:39:21;;;;;;;9.10;5.63;;;;;;;;;;5034988;28;20217;-69
2021/08/04 00:41:47;;;;;;;8.35;5.55;;;;;;;;;;5016066;28;20240;-70
2021/08/04 00:44:12;;;;;;;7.07;5.85;;;;;;;;;;5028080;28;20532;-70
2021/08/04 00:46:42;;;;;;;7.53;5.50;;;;;;;;;;5017821;28;20197;-70
2021/08/04 00:49:09;;;;;;;7.70;5.53;;;;;;;;;;5032738;28;20178;-70
2021/08/04 00:51:34;;;;;;;6.30;5.70;;;;;;;;;;5020410;28;20194;-70
2021/08/04 00:54:03;;;;;;;7.30;6.03;;;;;;;;;;5021187;28;20174;-70
2021/08/04 00:56:28;;;;;;;7.70;5.93;;;;;;;;;;5017839;28;20219;-70
2021/08/04 00:58:54;;;;;;;6.05;5.45;;;;;;;;;;5018241;28;20229;-70
2021/08/04 01:01:27;;;;;;;5.97;5.40;;;;;;;;;;5023225;28;20269;-70
2021/08/04 01:03:59;;;;;;;8.23;5.53;;;;;;;;;;5021863;28;20198;-70
2021/08/04 01:06:38;;;;;;;7.22;6.07;;;;;;;;;;5024671;28;20170;-70
2021/08/04 01:09:07;;;;;;;7.75;5.85;;;;;;;;;;5015071;28;20182;-70
2021/08/04 01:11:35;;;;;;;8.75;5.95;;;;;;;;;;5022624;28;20601;-70
2021/08/04 01:14:05;;;;;;;6.45;5.70;;;;;;;;;;5010330;28;20656;-70
2021/08/04 01:16:33;;;;;;;7.95;6.13;;;;;;;;;;5020142;28;20206;-70
2021/08/04 01:19:34;;;;;;;7.00;6.13;;;;;;;;;;5015698;28;20186;-70
2021/08/04 01:22:26;;;;;;;9.73;5.80;;;;;;;;;;5022340;28;20174;-71
2021/08/04 01:25:05;;;;;;;7.72;6.22;;;;;;;;;;5012965;28;20301;-71
2021/08/04 01:27:31;;;;;;;8.43;6.25;;;;;;;;;;5021198;28;20182;-71
2021/08/04 01:29:58;;;;;;;7.55;6.28;;;;;;;;;;5015568;28;20275;-70
2021/08/04 01:32:25;;;;;;;9.63;6.00;;;;;;;;;;5021397;28;20308;-70
2021/08/04 01:34:51;;;;;;;9.82;6.03;;;;;;;;;;5015422;28;20645;-70
2021/08/04 01:37:21;;;;;;;7.50;6.10;;;;;;;;;;5023002;28;20206;-70
2021/08/04 01:39:48;;;;;;;9.88;7.07;;;;;;;;;;5015440;28;20195;-70
2021/08/04 01:42:15;;;;;;;9.18;7.18;;;;;;;;;;5016670;28;20282;-70
2021/08/04 01:44:40;;;;;;;9.25;6.20;;;;;;;;;;5012094;28;20232;-70
2021/08/04 01:47:07;;;;;;;11.40;7.15;;;;;;;;;;5021111;28;20523;-70
2021/08/04 01:49:33;;;;;;;10.38;7.05;;;;;;;;;;5013016;28;20186;-70
2021/08/04 01:51:59;;;;;;;7.88;6.68;;;;;;;;;;5028927;28;20197;-70
2021/08/04 01:54:26;;;;;;;7.45;6.60;;;;;;;;;;5029639;28;20213;-70
2021/08/04 01:56:51;;;;;;;7.45;6.32;;;;;;;;;;5022076;28;20668;-70
2021/08/04 01:59:22;;;;;;;7.43;6.72;;;;;;;;;;5022177;28;20240;-70
2021/08/04 02:01:47;;;;;;;6.95;6.05;;;;;;;;;;5021581;28;20240;-70
2021/08/04 02:04:13;;;;;;;10.50;7.05;;;;;;;;;;5020382;28;20183;-70
2021/08/04 02:06:46;;;;;;;7.53;6.40;;;;;;;;;;5015082;28;20263;-70
2021/08/04 02:09:15;;;;;;;9.30;7.03;;;;;;;;;;5022980;28;20228;-70
2021/08/04 02:12:03;;;;;;;10.75;7.95;;;;;;;;;;5014960;28;20221;-70
2021/08/04 02:14:52;;;;;;;10.27;7.20;;;;;;;;;;5030014;28;20254;-70
2021/08/04 02:17:36;;;;;;;7.50;6.75;;;;;;;;;;5010887;28;20223;-70
2021/08/04 02:20:25;;;;;;;7.78;6.60;;;;;;;;;;5030204;28;20178;-70
2021/08/04 02:23:08;;;;;;;9.85;7.22;;;;;;;;;;5012714;28;20268;-70
2021/08/04 02:26:23;;;;;;;9.63;7.53;;;;;;;;;;5032553;28;20202;-70
2021/08/04 02:28:54;;;;;;;9.75;7.75;;;;;;;;;;5024016;28;20232;-70
2021/08/04 02:31:20;;;;;;;9.57;7.20;;;;;;;;;;5014395;28;20658;-70
2021/08/04 02:33:46;;;;;;;11.68;7.07;;;;;;;;;;5026767;28;20296;-70
2021/08/04 02:36:12;;;;;;;10.32;7.25;;;;;;;;;;5022175;28;20679;-70
2021/08/04 02:38:38;;;;;;;7.68;6.50;;;;;;;;;;5021986;28;20190;-70
2021/08/04 02:41:04;;;;;;;9.05;6.97;;;;;;;;;;5017330;28;20197;-70
2021/08/04 02:43:30;;;;;;;9.20;7.20;;;;;;;;;;5019978;28;20197;-70
2021/08/04 02:45:58;;;;;;;8.35;6.90;;;;;;;;;;5022867;28;20209;-70
2021/08/04 02:48:24;;;;;;;8.70;6.78;;;;;;;;;;5014554;28;20186;-70
2021/08/04 02:50:58;;;;;;;10.40;7.70;;;;;;;;;;5020769;28;20214;-70
2021/08/04 02:53:24;;;;;;;8.65;6.88;;;;;;;;;;5018795;28;20196;-70
2021/08/04 02:55:51;;;;;;;10.00;7.95;;;;;;;;;;5023072;28;20209;-70
2021/08/04 02:58:17;;;;;;;9.77;7.82;;;;;;;;;;5017989;28;20222;-70
2021/08/04 03:00:43;;;;;;;9.73;7.72;;;;;;;;;;5016959;28;20692;-70
2021/08/04 03:03:09;;;;;;;12.07;7.65;;;;;;;;;;5020833;28;20197;-70
2021/08/04 03:05:34;;;;;;;11.02;7.68;;;;;;;;;;5023728;28;20552;-70
2021/08/04 03:08:00;;;;;;;10.27;7.53;;;;;;;;;;5016160;28;20201;-70
2021/08/04 03:10:26;;;;;;;10.32;8.02;;;;;;;;;;5024897;28;20217;-70
2021/08/04 03:12:51;;;;;;;13.75;7.82;;;;;;;;;;5020591;28;20197;-70
2021/08/04 03:15:16;;;;;;;11.23;7.88;;;;;;;;;;5017062;28;20190;-70
2021/08/04 03:17:42;;;;;;;8.27;7.38;;;;;;;;;;5024211;28;20576;-70
2021/08/04 03:20:08;;;;;;;9.18;7.50;;;;;;;;;;5015148;28;20195;-70
2021/08/04 03:22:33;;;;;;;9.35;7.22;;;;;;;;;;5021783;28;20190;-70
2021/08/04 03:24:59;;;;;;;8.45;7.30;;;;;;;;;;5018430;28;20642;-70
2021/08/04 03:27:24;;;;;;;9.10;7.03;;;;;;;;;;5028049;28;20181;-70
2021/08/04 03:29:49;;;;;;;10.35;7.35;;;;;;;;;;5010438;28;20646;-70
2021/08/04 03:32:15;;;;;;;9.55;7.15;;;;;;;;;;5018441;28;20643;-70
2021/08/04 03:34:41;;;;;;;9.93;7.53;;;;;;;;;;5007194;28;20282;-70
2021/08/04 03:37:06;;;;;;;9.13;7.38;;;;;;;;;;5025813;28;20292;-70
2021/08/04 03:39:31;;;;;;;11.05;7.78;;;;;;;;;;5019192;28;20200;-70
2021/08/04 03:41:57;;;;;;;10.20;7.03;;;;;;;;;;5020520;28;20236;-70
2021/08/04 03:44:22;;;;;;;8.82;7.15;;;;;;;;;;5026045;28;20260;-70
2021/08/04 03:46:48;;;;;;;11.23;7.72;;;;;;;;;;5018218;28;20190;-70
2021/08/04 03:49:14;;;;;;;11.10;7.45;;;;;;;;;;5020319;28;20266;-70
2021/08/04 03:51:40;;;;;;;10.13;7.28;;;;;;;;;;5025653;28;20182;-69
2021/08/04 03:54:05;;;;;;;11.68;8.05;;;;;;;;;;5016965;28;20191;-69
2021/08/04 03:56:30;;;;;;;10.68;7.78;;;;;;;;;;5022878;28;20244;-69
2021/08/04 03:58:56;;;;;;;12.10;8.07;;;;;;;;;;5020892;28;20262;-70
2021/08/04 04:01:21;;;;;;;11.25;8.20;;;;;;;;;;5022001;28;20197;-70
2021/08/04 04:03:46;;;;;;;12.88;8.15;;;;;;;;;;5023691;28;20558;-70
2021/08/04 04:06:12;;;;;;;11.88;7.55;;;;;;;;;;5024523;28;20209;-70
2021/08/04 04:08:37;;;;;;;10.32;7.85;;;;;;;;;;5025696;28;20190;-69
2021/08/04 04:11:02;;;;;;;10.38;7.38;;;;;;;;;;5019656;28;20244;-69
2021/08/04 04:13:28;;;;;;;10.23;7.53;;;;;;;;;;5023932;28;20198;-69
2021/08/04 04:15:53;;;;;;;10.25;7.97;;;;;;;;;;5025984;28;20194;-69
2021/08/04 04:18:18;;;;;;;10.90;7.85;;;;;;;;;;5012758;28;20214;-69
2021/08/04 04:20:44;;;;;;;9.70;8.20;;;;;;;;;;5017540;28;20175;-69
2021/08/04 04:23:09;;;;;;;16.25;9.30;;;;;;;;;;5029403;28;20183;-69
2021/08/04 04:25:34;;;;;;;13.52;9.40;;;;;;;;;;5022821;28;20178;-69
2021/08/04 04:28:00;;;;;;;13.40;9.73;;;;;;;;;;5011717;28;20209;-69
2021/08/04 04:30:25;;;;;;;12.77;9.93;;;;;;;;;;5020971;28;20182;-69
2021/08/04 04:32:50;;;;;;;17.70;10.57;;;;;;;;;;5015665;28;20193;-69
2021/08/04 04:35:16;;;;;;;14.40;10.30;;;;;;;;;;5020896;28;20187;-69
2021/08/04 04:37:41;;;;;;;15.50;10.25;;;;;;;;;;5017541;28;20218;-69
2021/08/04 04:40:07;;;;;;;14.32;9.93;;;;;;;;;;5019646;28;20668;-69
2021/08/04 04:42:32;;;;;;;17.55;10.40;;;;;;;;;;5008743;28;20214;-69
2021/08/04 04:44:58;;;;;;;14.45;10.00;;;;;;;;;;5024452;28;20261;-69
2021/08/04 04:47:23;;;;;;;12.35;8.95;;;;;;;;;;5015432;28;20229;-69
2021/08/04 04:49:48;;;;;;;13.82;10.20;;;;;;;;;;5013079;28;20191;-69
2021/08/04 04:52:14;;;;;;;12.80;9.70;;;;;;;;;;5018561;28;20186;-69
2021/08/04 04:54:39;;;;;;;11.70;9.43;;;;;;;;;;5012941;28;20218;-69
2021/08/04 04:57:04;;;;;;;11.38;9.25;;;;;;;;;;5018965;28;20265;-69
2021/08/04 04:59:30;;;;;;;15.07;9.30;;;;;;;;;;5013771;28;20226;-69
2021/08/04 05:01:55;;;;;;;15.20;9.60;;;;;;;;;;5016547;28;20529;-69
2021/08/04 05:04:20;;;;;;;12.82;9.40;;;;;;;;;;5015592;28;20189;-69
2021/08/04 05:06:46;;;;;;;10.60;8.63;;;;;;;;;;5022758;28;20707;-69
2021/08/04 05:09:11;;;;;;;12.50;9.23;;;;;;;;;;5012219;28;20671;-69
2021/08/04 05:11:36;;;;;;;14.05;8.65;;;;;;;;;;5018557;28;20194;-69
2021/08/04 05:14:02;;;;;;;11.63;8.45;;;;;;;;;;5014392;28;20194;-69
2021/08/04 05:16:27;;;;;;;13.15;9.80;;;;;;;;;;5011509;28;20216;-69
2021/08/04 05:18:53;;;;;;;12.70;8.90;;;;;;;;;;5023573;28;20177;-69
2021/08/04 05:21:18;;;;;;;12.75;9.43;;;;;;;;;;5014923;28;20190;-69
2021/08/04 05:23:44;;;;;;;13.55;8.80;;;;;;;;;;5020207;28;20645;-69
2021/08/04 05:26:09;;;;;;;13.68;8.43;;;;;;;;;;5010458;28;20201;-69
2021/08/04 05:28:34;;;;;;;10.60;8.13;;;;;;;;;;4326189;28;10000825;-69
2021/08/04 05:31:00;;;;;;;12.20;8.85;;;;;;;;;;5008598;28;20194;-70
2021/08/04 05:33:25;;;;;;;12.00;8.45;;;;;;;;;;5019299;28;20215;-70
2021/08/04 05:35:50;;;;;;;12.48;7.95;;;;;;;;;;5010162;28;20277;-69
2021/08/04 05:38:16;;;;;;;12.13;8.48;;;;;;;;;;5017102;28;20189;-70
2021/08/04 05:40:42;;;;;;;14.05;9.48;;;;;;;;;;5006609;28;20186;-70
2021/08/04 05:43:07;;;;;;;11.25;7.80;;;;;;;;;;5011167;28;20213;-70
2021/08/04 05:45:34;;;;;;;10.95;7.72;;;;;;;;;;5016130;28;20194;-70
2021/08/04 05:47:59;;;;;;;8.18;6.57;;;;;;;;;;5015979;28;20568;-70
2021/08/04 05:50:25;;;;;;;10.27;8.10;;;;;;;;;;5017639;28;20228;-71
2021/08/04 05:52:50;;;;;;;11.30;7.63;;;;;;;;;;5017399;28;20193;-70
2021/08/04 05:55:16;;;;;;;12.45;8.13;;;;;;;;;;5019207;28;20186;-71
2021/08/04 05:57:41;;;;;;;10.85;7.50;;;;;;;;;;5016706;28;20225;-70
2021/08/04 06:00:07;;;;;;;9.98;7.85;;;;;;;;;;5022466;28;20204;-70
2021/08/04 06:02:33;;;;;;;11.70;8.55;;;;;;;;;;5016573;28;20194;-70
2021/08/04 06:04:59;;;;;;;10.82;7.80;;;;;;;;;;5017369;28;20685;-70
2021/08/04 06:07:24;;;;;;;10.77;7.78;;;;;;;;;;5019353;28;20186;-70
2021/08/04 06:09:49;;;;;;;10.55;8.13;;;;;;;;;;5019622;28;20201;-70
2021/08/04 06:12:14;;;;;;;10.43;8.18;;;;;;;;;;5018296;28;20186;-69
2021/08/04 06:14:40;;;;;;;11.50;8.75;;;;;;;;;;5023700;28;20196;-70
2021/08/04 06:17:05;;;;;;;10.68;8.40;;;;;;;;;;5022800;28;20198;-70
2021/08/04 06:19:30;;;;;;;13.18;8.32;;;;;;;;;;5016239;28;20668;-69
2021/08/04 06:21:58;;;;;;;14.15;8.93;;;;;;;;;;4674463;28;10000521;-69
2021/08/04 06:24:23;;;;;;;12.13;8.18;;;;;;;;;;5009839;28;20206;-68
2021/08/04 06:26:48;;;;;;;11.02;9.23;;;;;;;;;;5022017;28;20224;-69
2021/08/04 06:29:14;;;;;;;11.18;8.55;;;;;;;;;;5013678;28;20220;-69
2021/08/04 06:31:39;;;;;;;12.82;9.40;;;;;;;;;;5024910;28;20239;-69
2021/08/04 06:34:04;;;;;;;14.00;9.52;;;;;;;;;;5014002;28;20533;-69
2021/08/04 06:36:30;;;;;;;11.95;8.32;;;;;;;;;;5024895;28;20668;-69
2021/08/04 06:38:55;;;;;;;11.05;8.85;;;;;;;;;;5013161;28;20238;-70
2021/08/04 06:41:21;;;;;;;10.80;8.25;;;;;;;;;;5021715;28;20186;-70
2021/08/04 06:43:47;;;;;;;11.32;8.52;;;;;;;;;;5009989;28;20666;-70
2021/08/04 06:46:14;;;;;;;11.70;8.10;;;;;;;;;;5020518;28;20182;-70
2021/08/04 06:48:39;;;;;;;10.48;7.78;;;;;;;;;;5022571;28;20201;-69
2021/08/04 06:51:05;;;;;;;11.40;8.68;;;;;;;;;;5014752;28;20193;-70
2021/08/04 06:53:31;;;;;;;9.85;8.07;;;;;;;;;;5035004;28;20639;-70
2021/08/04 06:55:56;;;;;;;13.35;8.70;;;;;;;;;;5008198;28;20214;-70
2021/08/04 06:58:21;;;;;;;9.85;7.80;;;;;;;;;;5019183;28;20329;-68
2021/08/04 07:00:47;;;;;;;11.50;8.00;;;;;;;;;;5015100;28;20618;-70
2021/08/04 07:03:12;;;;;;;9.13;7.95;;;;;;;;;;5021067;28;20257;-69
2021/08/04 07:05:39;;;;;;;11.13;8.30;;;;;;;;;;5016724;28;20190;-70
2021/08/04 07:08:06;;;;;;;12.07;7.57;;;;;;;;;;5018228;28;20256;-69
2021/08/04 07:10:32;;;;;;;9.95;7.40;;;;;;;;;;5016318;28;20190;-70
2021/08/04 07:12:57;;;;;;;9.40;7.35;;;;;;;;;;5019514;28;20201;-69
2021/08/04 07:15:22;;;;;;;8.23;6.78;;;;;;;;;;5015820;28;20539;-69
2021/08/04 07:17:49;;;;;;;9.07;7.82;;;;;;;;;;5017169;28;20214;-69
2021/08/04 07:20:20;;;;;;;8.82;7.93;;;;;;;;;;5015405;28;20183;-69
2021/08/04 07:22:46;;;;;;;10.90;7.22;;;;;;;;;;5013683;28;20660;-70
2021/08/04 07:25:12;;;;;;;10.52;7.68;;;;;;;;;;5011364;28;20221;-70
2021/08/04 07:27:38;;;;;;;9.40;7.13;;;;;;;;;;5009191;28;20193;-69
2021/08/04 07:30:07;;;;;;;11.23;7.45;;;;;;;;;;5024545;28;20661;-70
2021/08/04 07:32:32;;;;;;;9.40;7.00;;;;;;;;;;5011901;28;20701;-70
2021/08/04 07:35:00;;;;;;;9.77;8.73;;;;;;;;;;5059137;28;20182;-70
2021/08/04 07:37:33;;;;;;;8.65;7.15;;;;;;;;;;5016779;28;20583;-70
2021/08/04 07:39:58;;;;;;;9.07;7.30;;;;;;;;;;5018499;28;20178;-71
2021/08/04 07:42:25;;;;;;;7.28;6.53;;;;;;;;;;5020246;28;20197;-70
2021/08/04 07:44:51;;;;;;;8.45;7.22;;;;;;;;;;5033310;28;20181;-70
2021/08/04 07:47:16;;;;;;;10.93;7.68;;;;;;;;;;5016097;28;20572;-69
2021/08/04 07:49:42;;;;;;;8.35;7.40;;;;;;;;;;5031416;28;20210;-70
2021/08/04 07:52:08;;;;;;;7.70;6.90;;;;;;;;;;5021190;28;20174;-70
2021/08/04 07:54:34;;;;;;;6.80;6.10;;;;;;;;;;5031582;28;20255;-70
2021/08/04 07:57:00;;;;;;;7.88;6.55;;;;;;;;;;5024783;28;20604;-70
2021/08/04 07:59:25;;;;;;;6.90;6.18;;;;;;;;;;5043663;28;20265;-69
2021/08/04 08:01:51;;;;;;;7.15;6.38;;;;;;;;;;5028092;28;20324;-70
2021/08/04 08:04:16;;;;;;;6.80;6.10;;;;;;;;;;5024460;28;20201;-71
2021/08/04 08:06:41;;;;;;;8.00;5.82;;;;;;;;;;5025755;28;20198;-70
2021/08/04 08:09:07;;;;;;;8.80;6.53;;;;;;;;;;5020990;28;20185;-70
2021/08/04 08:11:32;;;;;;;9.82;6.50;;;;;;;;;;5029226;28;20586;-70
2021/08/04 08:13:58;;;;;;;9.65;6.88;;;;;;;;;;5025600;28;20215;-70
2021/08/04 08:16:23;;;;;;;7.10;6.47;;;;;;;;;;5029357;28;20300;-70
2021/08/04 08:18:48;;;;;;;9.80;6.40;;;;;;;;;;5022063;28;20189;-70
2021/08/04 08:21:14;;;;;;;6.95;6.03;;;;;;;;;;5027576;28;20737;-70
2021/08/04 08:23:39;;;;;;;6.07;5.47;;;;;;;;;;5025906;28;20273;-70
2021/08/04 08:26:05;;;;;;;7.60;6.22;;;;;;;;;;5021799;28;20195;-70
2021/08/04 08:28:30;;;;;;;8.55;6.40;;;;;;;;;;5031967;28;20224;-71
2021/08/04 08:30:55;;;;;;;8.07;6.30;;;;;;;;;;5020214;28;20276;-69
2021/08/04 08:33:21;;;;;;;6.50;5.90;;;;;;;;;;5026281;28;20637;-70
2021/08/04 08:35:46;;;;;;;7.40;5.85;;;;;;;;;;5019748;28;20231;-68
2021/08/04 08:38:12;;;;;;;9.43;6.13;;;;;;;;;;5039863;28;20187;-69
2021/08/04 08:40:37;;;;;;;7.68;6.15;;;;;;;;;;5018587;28;20679;-69
2021/08/04 08:43:03;;;;;;;8.50;6.68;;;;;;;;;;5023061;28;20199;-69
2021/08/04 08:45:28;;;;;;;8.20;6.45;;;;;;;;;;5019211;28;20197;-70
2021/08/04 08:47:56;;;;;;;9.52;6.38;;;;;;;;;;5023684;28;20194;-70
2021/08/04 08:50:25;;;;;;;10.20;6.47;;;;;;;;;;5017453;28;20190;-70
2021/08/04 08:52:52;;;;;;;10.32;6.82;;;;;;;;;;5022815;28;20186;-70
2021/08/04 08:55:18;;;;;;;7.38;6.65;;;;;;;;;;5016156;28;20193;-67
2021/08/04 08:57:43;;;;;;;10.00;7.60;;;;;;;;;;5021053;28;20207;-70
2021/08/04 09:00:09;;;;;;;7.20;6.50;;;;;;;;;;5026200;28;20205;-70
2021/08/04 09:02:35;;;;;;;8.98;6.80;;;;;;;;;;5019614;28;20552;-70
2021/08/04 09:05:03;;;;;;;7.28;6.35;;;;;;;;;;5027513;28;20228;-70
2021/08/04 09:07:37;;;;;;;8.85;6.07;;;;;;;;;;5025285;28;20270;-69
2021/08/04 09:10:18;;;;;;;10.73;5.45;;;;;;;;;;5033353;28;20696;-69
2021/08/04 09:12:48;;;;;;;7.65;5.55;;;;;;;;;;5017266;28;20364;-69
2021/08/04 09:15:36;;;;;;;5.00;4.50;;;;;;;;;;5028689;28;20190;-71
2021/08/04 09:18:07;;;;;;;5.22;4.07;;;;;;;;;;5014781;28;20186;-70
2021/08/04 09:20:54;;;;;;;5.35;4.10;;;;;;;;;;5030863;28;20186;-67
2021/08/04 09:23:24;;;;;;;5.13;4.40;;;;;;;;;;5015065;28;20714;-70
2021/08/04 09:26:25;;;;;;;11.73;5.18;;;;;;;;;;5033115;28;20186;-70
2021/08/04 09:29:00;;;;;;;4.95;4.07;;;;;;;;;;5016503;28;20190;-70
2021/08/04 09:31:41;;;;;;;4.47;4.07;;;;;;;;;;5018641;28;20280;-70
2021/08/04 09:34:36;;;;;;;5.53;4.57;;;;;;;;;;5015576;28;20190;-70
2021/08/04 09:37:04;;;;;;;7.28;4.80;;;;;;;;;;5017695;28;20206;-70
2021/08/04 09:39:31;;;;;;;5.72;4.15;;;;;;;;;;5024439;28;20202;-69
2021/08/04 09:41:56;;;;;;;4.13;3.47;;;;;;;;;;5023871;28;20186;-70
2021/08/04 09:44:22;;;;;;;6.43;3.75;;;;;;;;;;5020953;28;20240;-70
2021/08/04 09:46:47;;;;;;;6.20;5.35;;;;;;;;;;5024841;28;20193;-70
2021/08/04 09:49:16;;;;;;;5.38;4.32;;;;;;;;;;5024182;28;20186;-70
2021/08/04 09:51:41;;;;;;;9.07;4.35;;;;;;;;;;5019139;28;20202;-70
2021/08/04 09:54:12;;;;;;;5.90;4.15;;;;;;;;;;5022794;28;20198;-66
2021/08/04 09:56:56;;;;;;;6.65;4.10;;;;;;;;;;5018265;28;20214;-70
2021/08/04 09:59:23;;;;;;;5.97;4.30;;;;;;;;;;5016727;28;20756;-70
2021/08/04 10:01:48;;;;;;;6.00;4.53;;;;;;;;;;5025993;28;20198;-70
2021/08/04 10:04:14;;;;;;;8.10;4.38;;;;;;;;;;5026328;28;20201;-70
2021/08/04 10:06:42;;;;;;;5.63;4.20;;;;;;;;;;5023634;28;20190;-70
2021/08/04 10:09:11;;;;;;;4.50;4.10;;;;;;;;;;5018829;28;20182;-70
2021/08/04 10:11:47;;;;;;;4.57;3.83;;;;;;;;;;5026255;28;20186;-70
2021/08/04 10:14:16;;;;;;;4.43;3.90;;;;;;;;;;5031386;28;20195;-69
2021/08/04 10:16:43;;;;;;;5.45;4.22;;;;;;;;;;5016961;28;20409;-68
2021/08/04 10:19:09;;;;;;;5.03;3.38;;;;;;;;;;5030923;28;20232;-68
2021/08/04 10:21:36;;;;;;;4.65;4.15;;;;;;;;;;5010836;28;20666;-68
2021/08/04 10:24:06;;;;;;;3.97;3.42;;;;;;;;;;5031537;28;20264;-68
2021/08/04 10:26:34;;;;;;;4.35;3.95;;;;;;;;;;5014665;28;20543;-68
2021/08/04 10:29:00;;;;;;;4.45;3.17;;;;;;;;;;5031001;28;20186;-68
2021/08/04 10:31:25;;;;;;;5.32;3.40;;;;;;;;;;5010896;28;20200;-68
2021/08/04 10:33:51;;;;;;;4.10;3.63;;;;;;;;;;5027494;28;20178;-67
2021/08/04 10:36:19;;;;;;;4.65;3.88;;;;;;;;;;5013195;28;20565;-70
2021/08/04 10:38:48;;;;;;;4.63;4.18;;;;;;;;;;5023094;28;20190;-70
2021/08/04 10:41:17;;;;;;;5.32;3.70;;;;;;;;;;5016188;28;20657;-70
2021/08/04 10:43:44;;;;;;;5.68;3.63;;;;;;;;;;5021709;28;20182;-70
2021/08/04 10:46:28;;;;;;;5.45;3.70;;;;;;;;;;5017769;28;20185;-70
2021/08/04 10:48:55;;;;;;;3.35;3.00;;;;;;;;;;5022835;28;20276;-70
2021/08/04 10:51:20;;;;;;;6.40;3.53;;;;;;;;;;5015085;28;20194;-70
2021/08/04 10:54:01;;;;;;;5.07;3.28;;;;;;;;;;5021816;28;20201;-70
2021/08/04 10:56:32;;;;;;;4.53;3.17;;;;;;;;;;5014572;28;20213;-70
2021/08/04 10:59:10;;;;;;;3.67;3.00;;;;;;;;;;5018928;28;20230;-70
2021/08/04 11:01:40;;;;;;;4.00;3.13;;;;;;;;;;5015622;28;20174;-70
2021/08/04 11:04:13;;;;;;;3.78;2.88;;;;;;;;;;5022422;28;20710;-68
2021/08/04 11:07:03;;;;;;;4.22;3.08;;;;;;;;;;5022799;28;20669;-68
2021/08/04 11:09:37;;;;;;;4.40;2.92;;;;;;;;;;5014458;28;20626;-70
2021/08/04 11:12:04;;;;;;;4.03;2.92;;;;;;;;;;5024385;28;20677;-70
2021/08/04 11:14:46;;;;;;;4.35;3.28;;;;;;;;;;5012383;28;20194;-70
2021/08/04 11:17:31;;;;;;;3.40;2.90;;;;;;;;;;5023595;28;20746;-70
2021/08/04 11:20:01;;;;;;;6.57;2.78;;;;;;;;;;5020061;28;20272;-68
2021/08/04 11:22:34;;;;;;;3.10;2.55;;;;;;;;;;5026367;28;20186;-68
2021/08/04 11:25:04;;;;;;;4.10;2.65;;;;;;;;;;5013282;28;20197;-69
2021/08/04 11:27:35;;;;;;;3.50;2.40;;;;;;;;;;5023075;28;20204;-69
2021/08/04 11:30:00;;;;;;;3.17;2.00;;;;;;;;;;5012184;28;20199;-66
2021/08/04 11:32:27;;;;;;;2.92;2.20;;;;;;;;;;5021551;28;20276;-69
2021/08/04 11:34:54;;;;;;;3.40;2.58;;;;;;;;;;5011850;28;20708;-69
2021/08/04 11:37:20;;;;;;;3.60;2.70;;;;;;;;;;5018239;28;20221;-67
2021/08/04 11:39:53;;;;;;;3.13;2.35;;;;;;;;;;5007676;28;20201;-68
2021/08/04 11:42:19;;;;;;;2.70;2.08;;;;;;;;;;5019455;28;20197;-68
2021/08/04 11:44:45;;;;;;;3.08;2.10;;;;;;;;;;5029058;28;20197;-69
2021/08/04 11:47:10;;;;;;;2.90;1.98;;;;;;;;;;5020762;28;20190;-68
2021/08/04 11:49:35;;;;;;;3.53;1.73;;;;;;;;;;5015362;28;20192;-68
2021/08/04 11:52:05;;;;;;;3.42;2.35;;;;;;;;;;5021137;28;20221;-69
2021/08/04 11:54:57;;;;;;;4.00;2.22;;;;;;;;;;5011123;28;20186;-69
2021/08/04 11:57:35;;;;;;;2.47;1.90;;;;;;;;;;5018448;28;20222;-67
2021/08/04 12:00:03;;;;;;;2.47;1.95;;;;;;;;;;5012071;28;20249;-69
2021/08/04 12:02:34;;;;;;;3.10;2.45;;;;;;;;;;5021502;28;20202;-69
2021/08/04 12:05:00;;;;;;;3.90;2.00;;;;;;;;;;5013615;28;20194;-69
2021/08/04 12:07:28;;;;;;;2.53;1.88;;;;;;;;;;5014374;28;20252;-69
2021/08/04 12:09:58;;;;;;;2.30;1.65;;;;;;;;;;5020536;28;20178;-68
2021/08/04 12:12:31;;;;;;;2.53;1.95;;;;;;;;;;5019059;28;20325;-69
2021/08/04 12:14:57;;;;;;;2.25;1.98;;;;;;;;;;5024733;28;20550;-70
2021/08/04 12:17:24;;;;;;;3.70;1.77;;;;;;;;;;5007731;28;20221;-70
2021/08/04 12:19:52;;;;;;;2.42;1.92;;;;;;;;;;5012308;28;20194;-69
2021/08/04 12:22:26;;;;;;;4.22;1.70;;;;;;;;;;5011088;28;20182;-70
2021/08/04 12:25:03;;;;;;;3.70;2.17;;;;;;;;;;5018213;28;20187;-69
2021/08/04 12:27:33;;;;;;;2.10;1.73;;;;;;;;;;5011193;28;20186;-69
2021/08/04 12:30:08;;;;;;;5.75;2.13;;;;;;;;;;5028274;28;20190;-70
2021/08/04 12:32:47;;;;;;;2.63;2.00;;;;;;;;;;5015361;28;20243;-69
2021/08/04 12:35:15;;;;;;;2.45;1.77;;;;;;;;;;5020780;28;20201;-70
2021/08/04 12:37:40;;;;;;;2.58;1.95;;;;;;;;;;5013576;28;20256;-67
2021/08/04 12:40:11;;;;;;;2.38;1.90;;;;;;;;;;5016819;28;20206;-70
2021/08/04 12:42:37;;;;;;;3.05;1.83;;;;;;;;;;5011423;28;20212;-70
2021/08/04 12:45:29;;;;;;;4.00;1.88;;;;;;;;;;5021563;28;20195;-70
2021/08/04 12:48:00;;;;;;;3.88;1.70;;;;;;;;;;5009920;28;20280;-68
2021/08/04 12:50:32;;;;;;;2.60;1.60;;;;;;;;;;5021810;28;20239;-68
2021/08/04 12:52:58;;;;;;;1.77;1.50;;;;;;;;;;5014936;28;20228;-70
2021/08/04 12:55:25;;;;;;;4.18;1.88;;;;;;;;;;5023750;28;20552;-70
2021/08/04 12:58:05;;;;;;;2.47;1.52;;;;;;;;;;5013505;28;20565;-69
2021/08/04 13:00:36;;;;;;;2.95;2.10;;;;;;;;;;5022107;28;20240;-70
2021/08/04 13:03:03;;;;;;;4.57;2.10;;;;;;;;;;5015485;28;20189;-70
2021/08/04 13:05:28;;;;;;;2.83;1.75;;;;;;;;;;5020000;28;20222;-69
2021/08/04 13:07:54;;;;;;;7.70;2.15;;;;;;;;;;5027662;28;20284;-70
2021/08/04 13:10:39;;;;;;;1.75;1.65;;;;;;;;;;5012742;28;20198;-70
2021/08/04 13:13:06;;;;;;;2.55;1.92;;;;;;;;;;5018253;28;20613;-71
2021/08/04 13:15:52;;;;;;;1.85;1.60;;;;;;;;;;5010825;28;20204;-72
2021/08/04 13:18:17;;;;;;;3.80;1.90;;;;;;;;;;5027073;28;20196;-71
2021/08/04 13:20:43;;;;;;;2.25;1.63;;;;;;;;;;5016194;28;20558;-71
2021/08/04 13:23:09;;;;;;;2.00;1.50;;;;;;;;;;5016124;28;20179;-71
2021/08/04 13:25:40;;;;;;;3.05;1.50;;;;;;;;;;5015414;28;20254;-71
2021/08/04 13:28:15;;;;;;;3.30;1.85;;;;;;;;;;5015284;28;20197;-71
2021/08/04 13:30:49;;;;;;;2.92;1.67;;;;;;;;;;5012107;28;20723;-71
2021/08/04 13:33:16;;;;;;;1.95;1.75;;;;;;;;;;5014122;28;20209;-72
2021/08/04 13:35:43;;;;;;;1.60;1.40;;;;;;;;;;5018990;28;20196;-69
2021/08/04 13:38:09;;;;;;;2.38;1.55;;;;;;;;;;5023696;28;20202;-71
2021/08/04 13:40:35;;;;;;;2.60;1.48;;;;;;;;;;5013624;28;20209;-71
2021/08/04 13:43:01;;;;;;;1.60;1.40;;;;;;;;;;5020602;28;20225;-72
2021/08/04 13:45:27;;;;;;;3.45;1.80;;;;;;;;;;5011277;28;20213;-70
2021/08/04 13:47:53;;;;;;;2.65;1.50;;;;;;;;;;5020706;28;20611;-71
2021/08/04 13:50:21;;;;;;;3.53;1.83;;;;;;;;;;5012838;28;20506;-71
2021/08/04 13:52:48;;;;;;;3.00;1.83;;;;;;;;;;5023219;28;20244;-71
2021/08/04 13:55:15;;;;;;;1.42;1.30;;;;;;;;;;5020388;28;20252;-71
2021/08/04 13:57:42;;;;;;;1.98;1.65;;;;;;;;;;5016388;28;20202;-71
2021/08/04 14:00:20;;;;;;;3.67;1.73;;;;;;;;;;5016933;28;20708;-68
2021/08/04 14:02:46;;;;;;;4.32;1.70;;;;;;;;;;5015971;28;20198;-71
2021/08/04 14:05:13;;;;;;;2.00;1.60;;;;;;;;;;5021362;28;20209;-71
2021/08/04 14:07:38;;;;;;;5.45;1.77;;;;;;;;;;5017251;28;22404;-70
2021/08/04 14:10:10;;;;;;;1.73;1.63;;;;;;;;;;5014957;28;20182;-70
2021/08/04 14:12:35;;;;;;;2.22;1.42;;;;;;;;;;5012496;28;20199;-71
2021/08/04 14:15:02;;;;;;;1.90;1.55;;;;;;;;;;5019719;28;20183;-71
2021/08/04 14:17:27;;;;;;;1.80;1.40;;;;;;;;;;5013530;28;20198;-72
2021/08/04 14:19:53;;;;;;;1.60;1.50;;;;;;;;;;5021021;28;20221;-71
2021/08/04 14:22:19;;;;;;;2.95;1.30;;;;;;;;;;5007687;28;20186;-71
2021/08/04 14:24:45;;;;;;;2.00;1.60;;;;;;;;;;5025740;28;20186;-71
2021/08/04 14:27:10;;;;;;;2.08;1.58;;;;;;;;;;5010691;28;21503;-72
2021/08/04 14:29:36;;;;;;;3.08;2.00;;;;;;;;;;5026176;28;20205;-71
2021/08/04 14:32:01;;;;;;;3.75;1.60;;;;;;;;;;5019552;28;20210;-72
2021/08/04 14:34:27;;;;;;;1.77;1.45;;;;;;;;;;5016754;28;20224;-72
2021/08/04 14:36:52;;;;;;;2.25;1.88;;;;;;;;;;5023163;28;20568;-71
2021/08/04 14:39:18;;;;;;;2.30;2.00;;;;;;;;;;5015562;28;20194;-70
2021/08/04 14:41:43;;;;;;;2.00;1.70;;;;;;;;;;5019240;28;20186;-72
2021/08/04 14:44:08;;;;;;;2.20;1.58;;;;;;;;;;5014821;28;20187;-71